Crew | Aerofun Virtual



 METAR AND TAF INFORMATION
METAR FOR FMMI
ADDS - METARS form results

(1527 UTC 24 May 2019)
Data provider http://aviationweather.gov/metar/data/
 
METAR text: FMMI 241500Z 11011KT 9999 FEW020 19/13 Q1022 NOSIG
Conditions at: FMMI (ANTANANARIVO/IVA, KM) observed 1500 UTC 24 May 2019
Temperature: 19.0°C (66°F)
Dewpoint: 13.0°C (55°F) [RH = 68%]
Pressure (altimeter): 30.18 inches Hg (1022.0 mb)
Winds: from the ESE (110 degrees) at 13 MPH (11 knots; 5.7 m/s)
Visibility: 6 or more miles (10+ km)
Ceiling: at least 12,000 feet AGL
Clouds: few clouds at 2000 feet AGL
Weather: no significant weather observed at this time

METAR text: FMMI 241430Z 10012KT 9999 FEW020 20/13 Q1022 NOSIG
Conditions at: FMMI (ANTANANARIVO/IVA, KM) observed 1430 UTC 24 May 2019
Temperature: 20.0°C (68°F)
Dewpoint: 13.0°C (55°F) [RH = 64%]
Pressure (altimeter): 30.18 inches Hg (1022.0 mb)
Winds: from the E (100 degrees) at 14 MPH (12 knots; 6.2 m/s)
Visibility: 6 or more miles (10+ km)
Ceiling: at least 12,000 feet AGL
Clouds: few clouds at 2000 feet AGL
Weather: no significant weather observed at this time

Forecast for: FMMI (ANTANANARIVO/IVA, KM)
Text: TAF FMMI 241100Z 2412/2518 14008KT 9999 FEW017 BKN020
Forecast period: 1200 UTC 24 May 2019 to 1800 UTC 25 May 2019
Forecast type: FROM: standard forecast or significant change
Winds: from the SE (140 degrees) at 9 MPH (8 knots; 4.1 m/s)
Visibility: 6 or more miles 10+ km)
Ceiling: 2000 feet AGL
Clouds: few clouds at 1700 feet AGL
broken clouds at 2000 feet AGL
Weather: no significant weather forecast for this period
Text: PROB30
Forecast period: 0000 to 0400 UTC 25 May 2019
Forecast type: TEMPORARY: The following changes expected for less than half the time period
Visibility: 2.80 miles (4.51 km)
Ceiling: unknown
Clouds: missing
Weather: DZ RA  (moderate drizzle, moderate rain)

 AIRPORT MAP

 RUNWAY INFORMATION
Runway 11 Runway length 10171 ft Runway width 148 ft
Runway elevation 4197 ft Runway displaced threshold 0 ft Runway heading 99
Runway 29 Runway length 10171 ft Runway width 148 ft
Runway elevation 4117 ft Runway displaced threshold 0 ft Runway heading 279

 AIRPORT FREQUENCIES
Type TWR Name TWR Frequency 120.1 MHZ

 AIRPORT NEAR NAVIGATION AIDS
Type VOR-DME Name Ivato Frequency 114500 KHZ